Time;durP1;ratioP1;P1;durP2;ratioP2;P2;SDS_P1;SDS_P2;PMS_P1;PMS_P2;Temp;Humidity;BMP_temperature;BMP_pressure;BME280_temperature;BME280_humidity;BME280_pressure;Samples;Min_cycle;Max_cycle;Signal;HPM_P1;HPM_P2
2022/10/15 00:01:20;;;;;;;3.53;2.70;;;;;;;;;;5021734;28;20229;-41
2022/10/15 00:03:47;;;;;;;2.70;2.50;;;;;;;;;;5019509;28;20205;-41
2022/10/15 00:06:15;;;;;;;3.90;3.00;;;;;;;;;;5024996;28;20215;-43
2022/10/15 00:08:43;;;;;;;4.93;2.80;;;;;;;;;;5028109;28;20222;-41
2022/10/15 00:11:11;;;;;;;3.23;2.93;;;;;;;;;;5021454;28;20232;-39
2022/10/15 00:13:40;;;;;;;7.13;2.53;;;;;;;;;;5017282;28;20216;-44
2022/10/15 00:16:08;;;;;;;2.67;2.47;;;;;;;;;;5023515;28;20208;-41
2022/10/15 00:18:35;;;;;;;3.40;3.10;;;;;;;;;;5016584;28;20203;-43
2022/10/15 00:21:02;;;;;;;3.40;3.03;;;;;;;;;;5023255;28;20231;-38
2022/10/15 00:23:31;;;;;;;2.60;2.40;;;;;;;;;;5022717;28;20207;-45
2022/10/15 00:26:02;;;;;;;5.60;3.03;;;;;;;;;;5027169;28;20302;-43
2022/10/15 00:28:29;;;;;;;2.97;2.73;;;;;;;;;;5018464;28;20226;-44
2022/10/15 00:31:02;;;;;;;3.47;2.20;;;;;;;;;;5024464;28;20219;-45
2022/10/15 00:33:29;;;;;;;3.47;2.90;;;;;;;;;;5013627;28;20205;-43
2022/10/15 00:36:00;;;;;;;4.77;3.13;;;;;;;;;;5016363;28;20208;-40
2022/10/15 00:38:27;;;;;;;3.47;2.80;;;;;;;;;;5027487;28;20248;-42
2022/10/15 00:40:54;;;;;;;4.67;3.03;;;;;;;;;;5028396;28;20293;-43
2022/10/15 00:43:35;;;;;;;4.50;2.63;;;;;;;;;;5020704;28;20202;-45
2022/10/15 00:46:04;;;;;;;4.47;2.67;;;;;;;;;;5021304;28;20290;-41
2022/10/15 00:48:32;;;;;;;3.07;2.77;;;;;;;;;;5018828;28;20222;-44
2022/10/15 00:51:01;;;;;;;3.30;3.00;;;;;;;;;;5024963;28;20219;-44
2022/10/15 00:53:28;;;;;;;3.30;3.00;;;;;;;;;;5027591;28;20287;-43
2022/10/15 00:55:55;;;;;;;5.20;3.23;;;;;;;;;;5028280;28;20207;-39
2022/10/15 00:58:27;;;;;;;3.40;3.10;;;;;;;;;;5024391;28;20195;-44
2022/10/15 01:00:54;;;;;;;5.40;3.47;;;;;;;;;;5016289;28;20223;-39
2022/10/15 01:03:23;;;;;;;4.40;3.43;;;;;;;;;;5022184;28;20214;-37
2022/10/15 01:05:51;;;;;;;3.80;3.43;;;;;;;;;;5011308;28;20207;-43
2022/10/15 01:08:18;;;;;;;5.37;3.60;;;;;;;;;;5022438;28;20228;-44
2022/10/15 01:10:49;;;;;;;3.60;3.30;;;;;;;;;;5021878;28;20226;-39
2022/10/15 01:13:22;;;;;;;3.50;3.20;;;;;;;;;;5016239;28;20219;-41
2022/10/15 01:15:54;;;;;;;4.00;3.60;;;;;;;;;;5019470;28;20209;-37
2022/10/15 01:18:25;;;;;;;4.43;3.30;;;;;;;;;;5024029;28;20276;-43
2022/10/15 01:20:57;;;;;;;4.60;3.63;;;;;;;;;;5022095;28;20254;-36
2022/10/15 01:23:48;;;;;;;3.77;3.40;;;;;;;;;;5015934;28;20211;-42
2022/10/15 01:26:25;;;;;;;4.10;3.57;;;;;;;;;;5012850;28;20202;-39
2022/10/15 01:28:55;;;;;;;4.00;3.60;;;;;;;;;;5007558;28;20223;-36
2022/10/15 01:31:28;;;;;;;3.87;3.37;;;;;;;;;;5013702;28;20227;-43
2022/10/15 01:34:00;;;;;;;2.53;2.33;;;;;;;;;;5014044;28;20205;-40
2022/10/15 01:36:32;;;;;;;3.03;2.63;;;;;;;;;;5020181;28;20209;-39
2022/10/15 01:39:01;;;;;;;3.27;2.40;;;;;;;;;;5010488;28;20359;-45
2022/10/15 01:41:32;;;;;;;2.47;2.27;;;;;;;;;;5010346;28;20310;-43
2022/10/15 01:44:01;;;;;;;5.00;2.40;;;;;;;;;;5013514;28;20219;-41
2022/10/15 01:46:32;;;;;;;1.93;1.80;;;;;;;;;;5012708;28;20206;-41
2022/10/15 01:49:00;;;;;;;2.20;2.00;;;;;;;;;;5020220;28;20241;-39
2022/10/15 01:51:30;;;;;;;2.53;2.40;;;;;;;;;;5015550;28;20260;-39
2022/10/15 01:53:58;;;;;;;3.60;1.83;;;;;;;;;;5018892;28;20236;-41
2022/10/15 01:56:27;;;;;;;2.43;2.23;;;;;;;;;;5026054;28;20238;-36
2022/10/15 01:58:55;;;;;;;4.73;2.30;;;;;;;;;;5015347;28;20199;-41
2022/10/15 02:01:23;;;;;;;2.37;2.00;;;;;;;;;;5016059;28;20310;-39
2022/10/15 02:03:52;;;;;;;3.10;2.10;;;;;;;;;;5015447;28;20298;-44
2022/10/15 02:06:22;;;;;;;1.97;1.87;;;;;;;;;;5010744;28;20235;-38
2022/10/15 02:08:54;;;;;;;2.27;1.80;;;;;;;;;;5017760;28;20218;-43
2022/10/15 02:11:21;;;;;;;2.10;1.90;;;;;;;;;;5022713;28;20237;-41
2022/10/15 02:13:52;;;;;;;1.97;1.77;;;;;;;;;;5019742;28;20237;-43
2022/10/15 02:16:22;;;;;;;2.00;1.90;;;;;;;;;;5012706;28;20215;-42
2022/10/15 02:18:52;;;;;;;7.17;2.90;;;;;;;;;;5018541;28;20200;-42
2022/10/15 02:21:23;;;;;;;2.33;2.13;;;;;;;;;;5017834;28;20223;-41
2022/10/15 02:23:52;;;;;;;2.70;2.50;;;;;;;;;;5022484;28;20229;-44
2022/10/15 02:26:20;;;;;;;2.30;2.10;;;;;;;;;;5012926;28;20206;-40
2022/10/15 02:28:51;;;;;;;2.20;2.10;;;;;;;;;;5012851;28;20309;-42
2022/10/15 02:31:19;;;;;;;1.60;1.50;;;;;;;;;;5016222;28;20306;-40
2022/10/15 02:33:47;;;;;;;1.60;1.50;;;;;;;;;;5016770;28;20229;-43
2022/10/15 02:36:15;;;;;;;2.10;1.90;;;;;;;;;;5009928;28;20515;-40
2022/10/15 02:38:45;;;;;;;2.07;1.90;;;;;;;;;;5023199;28;20234;-44
2022/10/15 02:41:12;;;;;;;1.70;1.60;;;;;;;;;;5020231;28;20311;-43
2022/10/15 02:43:40;;;;;;;1.67;1.53;;;;;;;;;;5017599;28;20198;-38
2022/10/15 02:46:08;;;;;;;2.20;2.00;;;;;;;;;;5020854;28;20293;-43
2022/10/15 02:48:35;;;;;;;2.63;1.73;;;;;;;;;;5011336;28;20310;-43
2022/10/15 02:51:03;;;;;;;1.60;1.50;;;;;;;;;;5013775;28;20230;-43
2022/10/15 02:53:30;;;;;;;2.03;1.60;;;;;;;;;;5025153;28;20289;-38
2022/10/15 02:55:59;;;;;;;4.47;1.70;;;;;;;;;;5025098;28;20206;-41
2022/10/15 02:58:28;;;;;;;5.87;2.20;;;;;;;;;;5011507;28;20200;-44
2022/10/15 03:00:55;;;;;;;2.40;2.20;;;;;;;;;;5016291;28;20683;-37
2022/10/15 03:03:22;;;;;;;2.37;1.80;;;;;;;;;;5019365;28;20211;-42
2022/10/15 03:05:49;;;;;;;3.87;2.50;;;;;;;;;;5015618;28;20237;-44
2022/10/15 03:08:16;;;;;;;4.10;2.70;;;;;;;;;;5021317;28;20298;-44
2022/10/15 03:10:44;;;;;;;1.60;1.40;;;;;;;;;;5019827;28;20226;-39
2022/10/15 03:13:13;;;;;;;3.90;1.60;;;;;;;;;;5018723;28;20211;-45
2022/10/15 03:15:40;;;;;;;1.50;1.00;;;;;;;;;;5023983;28;20494;-42
2022/10/15 03:18:08;;;;;;;1.30;1.13;;;;;;;;;;5010019;28;20203;-44
2022/10/15 03:20:35;;;;;;;2.40;0.87;;;;;;;;;;5021970;28;20225;-42
2022/10/15 03:23:02;;;;;;;1.50;1.17;;;;;;;;;;5017676;28;20249;-45
2022/10/15 03:25:29;;;;;;;2.17;0.90;;;;;;;;;;5024840;28;20213;-40
2022/10/15 03:27:56;;;;;;;0.70;0.53;;;;;;;;;;5007508;28;20633;-44
2022/10/15 03:30:25;;;;;;;0.67;0.67;;;;;;;;;;5024375;28;20285;-44
2022/10/15 03:32:52;;;;;;;0.90;0.60;;;;;;;;;;5009240;28;20284;-40
2022/10/15 03:35:19;;;;;;;1.33;1.00;;;;;;;;;;5023474;28;20203;-42
2022/10/15 03:37:47;;;;;;;1.00;0.90;;;;;;;;;;5018863;28;20207;-38
2022/10/15 03:40:14;;;;;;;0.67;0.67;;;;;;;;;;5022005;28;20215;-38
2022/10/15 03:42:41;;;;;;;0.80;0.80;;;;;;;;;;5014431;28;20243;-41
2022/10/15 03:45:09;;;;;;;0.60;0.60;;;;;;;;;;5009384;28;20221;-42
2022/10/15 03:47:37;;;;;;;1.27;0.60;;;;;;;;;;5021328;28;20267;-42
2022/10/15 03:50:05;;;;;;;0.60;0.60;;;;;;;;;;5014001;28;20222;-40
2022/10/15 03:52:32;;;;;;;1.00;0.77;;;;;;;;;;5015306;28;20195;-41
2022/10/15 03:54:59;;;;;;;0.80;0.73;;;;;;;;;;5024544;28;20214;-44
2022/10/15 03:57:26;;;;;;;1.03;0.87;;;;;;;;;;5020915;28;20209;-46
2022/10/15 03:59:54;;;;;;;0.80;0.80;;;;;;;;;;5013428;28;20220;-44
2022/10/15 04:02:21;;;;;;;2.10;0.70;;;;;;;;;;5019608;28;20217;-41
2022/10/15 04:04:52;;;;;;;1.57;0.60;;;;;;;;;;5014672;28;20195;-41
2022/10/15 04:07:19;;;;;;;0.83;0.40;;;;;;;;;;5006334;28;20208;-43
2022/10/15 04:09:46;;;;;;;0.67;0.43;;;;;;;;;;5015847;28;20228;-44
2022/10/15 04:12:13;;;;;;;0.30;0.30;;;;;;;;;;5018037;28;20211;-43
2022/10/15 04:14:40;;;;;;;0.30;0.30;;;;;;;;;;5023811;28;20274;-37
2022/10/15 04:17:11;;;;;;;0.67;0.20;;;;;;;;;;5007442;28;20230;-42
2022/10/15 04:19:38;;;;;;;0.30;0.30;;;;;;;;;;5015071;28;20213;-45
2022/10/15 04:22:06;;;;;;;0.63;0.37;;;;;;;;;;5027759;28;20203;-43
2022/10/15 04:24:33;;;;;;;1.50;0.20;;;;;;;;;;5028805;28;20201;-43
2022/10/15 04:27:01;;;;;;;0.20;0.20;;;;;;;;;;5020272;28;20215;-44
2022/10/15 04:29:28;;;;;;;0.67;0.30;;;;;;;;;;5020655;28;20320;-43
2022/10/15 04:31:56;;;;;;;2.10;0.37;;;;;;;;;;5017093;28;20203;-45
2022/10/15 04:34:23;;;;;;;0.10;0.10;;;;;;;;;;5012353;28;20214;-45
2022/10/15 04:36:50;;;;;;;1.17;0.37;;;;;;;;;;5026061;28;20206;-43
2022/10/15 04:39:18;;;;;;;0.20;0.20;;;;;;;;;;5028176;28;20201;-39
2022/10/15 04:41:46;;;;;;;0.20;0.20;;;;;;;;;;5027364;28;20317;-41
2022/10/15 04:44:13;;;;;;;0.40;0.10;;;;;;;;;;5016180;28;20207;-40
2022/10/15 04:46:40;;;;;;;0.57;0.30;;;;;;;;;;5018433;28;20201;-40
2022/10/15 04:49:07;;;;;;;0.10;0.10;;;;;;;;;;5020802;28;20235;-40
2022/10/15 04:51:34;;;;;;;0.40;0.37;;;;;;;;;;5017788;28;20230;-39
2022/10/15 04:54:01;;;;;;;0.30;0.30;;;;;;;;;;5019544;28;20207;-40
2022/10/15 04:56:30;;;;;;;0.20;0.20;;;;;;;;;;5018786;28;20273;-44
2022/10/15 04:58:59;;;;;;;1.43;0.30;;;;;;;;;;5026336;28;20222;-45
2022/10/15 05:01:26;;;;;;;0.20;0.20;;;;;;;;;;5013608;28;20246;-44
2022/10/15 05:03:53;;;;;;;0.30;0.30;;;;;;;;;;5016236;28;20218;-41
2022/10/15 05:06:21;;;;;;;1.20;0.40;;;;;;;;;;5022469;28;20213;-40
2022/10/15 05:08:48;;;;;;;0.30;0.30;;;;;;;;;;5019858;28;20209;-43
2022/10/15 05:11:16;;;;;;;0.33;0.33;;;;;;;;;;5021822;28;20225;-44
2022/10/15 05:13:45;;;;;;;0.27;0.27;;;;;;;;;;5021651;28;20321;-43
2022/10/15 05:16:13;;;;;;;2.10;0.30;;;;;;;;;;5018951;28;20198;-39
2022/10/15 05:18:41;;;;;;;0.33;0.33;;;;;;;;;;5021899;28;20221;-43
2022/10/15 05:21:10;;;;;;;0.20;0.20;;;;;;;;;;5010745;28;20219;-43
2022/10/15 05:23:38;;;;;;;2.80;0.37;;;;;;;;;;5015342;28;20202;-43
2022/10/15 05:26:06;;;;;;;0.83;0.40;;;;;;;;;;5027474;28;20272;-43
2022/10/15 05:28:33;;;;;;;0.40;0.40;;;;;;;;;;5010428;28;20282;-44
2022/10/15 05:31:05;;;;;;;0.10;0.10;;;;;;;;;;5022726;28;20227;-44
2022/10/15 05:33:33;;;;;;;0.50;0.30;;;;;;;;;;5012890;28;20205;-43
2022/10/15 05:36:08;;;;;;;0.13;0.13;;;;;;;;;;5015532;28;20218;-42
2022/10/15 05:38:35;;;;;;;1.43;0.40;;;;;;;;;;5016418;28;20194;-38
2022/10/15 05:41:02;;;;;;;0.87;0.30;;;;;;;;;;5017697;28;20224;-41
2022/10/15 05:43:30;;;;;;;0.37;0.30;;;;;;;;;;5019593;28;20221;-41
2022/10/15 05:45:57;;;;;;;0.57;0.50;;;;;;;;;;5012418;28;20206;-42
2022/10/15 05:48:26;;;;;;;2.27;0.50;;;;;;;;;;5019302;28;20213;-40
2022/10/15 05:50:53;;;;;;;0.67;0.40;;;;;;;;;;5025951;28;20238;-44
2022/10/15 05:53:20;;;;;;;0.47;0.40;;;;;;;;;;5017357;28;20212;-44
2022/10/15 05:55:47;;;;;;;0.33;0.33;;;;;;;;;;5022322;28;20214;-44
2022/10/15 05:58:14;;;;;;;0.43;0.43;;;;;;;;;;5020729;28;20264;-42
2022/10/15 06:00:42;;;;;;;0.70;0.27;;;;;;;;;;5026301;28;20218;-41
2022/10/15 06:03:11;;;;;;;0.27;0.27;;;;;;;;;;5018001;28;20207;-45
2022/10/15 06:05:40;;;;;;;4.63;0.47;;;;;;;;;;5011314;28;20212;-42
2022/10/15 06:08:07;;;;;;;0.30;0.30;;;;;;;;;;5026812;28;20213;-39
2022/10/15 06:10:36;;;;;;;0.10;0.10;;;;;;;;;;5011539;28;20327;-42
2022/10/15 06:13:03;;;;;;;0.33;0.33;;;;;;;;;;5022116;28;20221;-42
2022/10/15 06:15:30;;;;;;;1.07;0.50;;;;;;;;;;5018911;28;20211;-41
2022/10/15 06:17:57;;;;;;;0.67;0.40;;;;;;;;;;5023487;28;20354;-40
2022/10/15 06:20:25;;;;;;;0.30;0.20;;;;;;;;;;5014621;28;20242;-37
2022/10/15 06:22:57;;;;;;;2.40;0.60;;;;;;;;;;5014848;28;20209;-38
2022/10/15 06:25:24;;;;;;;0.20;0.20;;;;;;;;;;5028296;28;20200;-41
2022/10/15 06:27:51;;;;;;;0.33;0.33;;;;;;;;;;5024577;28;20238;-44
2022/10/15 06:30:18;;;;;;;0.83;0.30;;;;;;;;;;5017890;28;20237;-42
2022/10/15 06:32:48;;;;;;;2.13;0.50;;;;;;;;;;5020689;28;20200;-43
2022/10/15 06:35:15;;;;;;;0.30;0.20;;;;;;;;;;5028076;28;20288;-42
2022/10/15 06:37:42;;;;;;;0.30;0.30;;;;;;;;;;5029265;28;20295;-38
2022/10/15 06:40:11;;;;;;;2.37;0.23;;;;;;;;;;5029231;28;20244;-43
2022/10/15 06:42:39;;;;;;;0.67;0.40;;;;;;;;;;5019480;28;20215;-43
2022/10/15 06:45:07;;;;;;;0.60;0.40;;;;;;;;;;5023907;28;20309;-36
2022/10/15 06:47:37;;;;;;;1.20;0.37;;;;;;;;;;5016111;28;20207;-43
2022/10/15 06:50:06;;;;;;;0.40;0.40;;;;;;;;;;5013140;28;20322;-42
2022/10/15 06:52:43;;;;;;;0.50;0.50;;;;;;;;;;5010468;28;20207;-43
2022/10/15 06:55:12;;;;;;;0.60;0.60;;;;;;;;;;5019206;28;20198;-40
2022/10/15 06:57:41;;;;;;;0.87;0.50;;;;;;;;;;5023009;28;20216;-42
2022/10/15 07:00:09;;;;;;;1.57;0.30;;;;;;;;;;5011693;28;20228;-44
2022/10/15 07:02:36;;;;;;;2.10;0.77;;;;;;;;;;5013805;28;20207;-44
2022/10/15 07:05:03;;;;;;;1.53;0.40;;;;;;;;;;5012230;28;20210;-41
2022/10/15 07:07:30;;;;;;;0.40;0.40;;;;;;;;;;5017990;28;20203;-37
2022/10/15 07:09:57;;;;;;;0.63;0.60;;;;;;;;;;5004719;28;20235;-40
2022/10/15 07:12:28;;;;;;;1.87;0.90;;;;;;;;;;5007533;28;20382;-44
2022/10/15 07:14:55;;;;;;;0.83;0.67;;;;;;;;;;5016569;28;20207;-39
2022/10/15 07:17:23;;;;;;;0.77;0.67;;;;;;;;;;5019652;28;20199;-43
2022/10/15 07:19:50;;;;;;;2.83;0.57;;;;;;;;;;5008548;28;20332;-37
2022/10/15 07:22:17;;;;;;;0.70;0.70;;;;;;;;;;5012042;28;20332;-40
2022/10/15 07:24:44;;;;;;;0.67;0.57;;;;;;;;;;5026297;28;20212;-41
2022/10/15 07:27:12;;;;;;;0.43;0.43;;;;;;;;;;5017951;28;20425;-43
2022/10/15 07:29:40;;;;;;;3.00;0.80;;;;;;;;;;5013652;28;20206;-43
2022/10/15 07:32:07;;;;;;;1.80;0.57;;;;;;;;;;5004710;28;20279;-42
2022/10/15 07:34:38;;;;;;;1.40;0.60;;;;;;;;;;5017551;28;20516;-42
2022/10/15 07:37:05;;;;;;;1.17;1.03;;;;;;;;;;5017880;28;20197;-44
2022/10/15 07:39:32;;;;;;;1.03;0.43;;;;;;;;;;5009443;28;20211;-36
2022/10/15 07:41:59;;;;;;;0.60;0.60;;;;;;;;;;5019219;28;20298;-40
2022/10/15 07:44:26;;;;;;;0.90;0.90;;;;;;;;;;5006581;28;20260;-38
2022/10/15 07:46:55;;;;;;;0.60;0.60;;;;;;;;;;5017993;28;20567;-44
2022/10/15 07:49:22;;;;;;;1.20;1.10;;;;;;;;;;5012339;28;20207;-40
2022/10/15 07:51:49;;;;;;;7.07;0.80;;;;;;;;;;5015188;28;20234;-43
2022/10/15 07:54:17;;;;;;;0.60;0.60;;;;;;;;;;5024169;28;20211;-42
2022/10/15 07:56:44;;;;;;;1.23;0.67;;;;;;;;;;5014214;28;20266;-41
2022/10/15 07:59:11;;;;;;;3.53;0.77;;;;;;;;;;5017522;28;20210;-43
2022/10/15 08:01:38;;;;;;;0.50;0.50;;;;;;;;;;5012481;28;20223;-36
2022/10/15 08:04:07;;;;;;;0.33;0.33;;;;;;;;;;5008806;28;20214;-42
2022/10/15 08:06:34;;;;;;;0.97;0.50;;;;;;;;;;5018766;28;20291;-38
2022/10/15 08:09:01;;;;;;;0.87;0.80;;;;;;;;;;5010502;28;20259;-42
2022/10/15 08:11:28;;;;;;;0.50;0.50;;;;;;;;;;5009901;28;20258;-36
2022/10/15 08:13:55;;;;;;;0.50;0.50;;;;;;;;;;5011755;28;20225;-45
2022/10/15 08:16:22;;;;;;;0.83;0.70;;;;;;;;;;5022424;28;20213;-42
2022/10/15 08:18:50;;;;;;;0.50;0.50;;;;;;;;;;5021471;28;20212;-44
2022/10/15 08:21:18;;;;;;;0.50;0.50;;;;;;;;;;5018225;28;20221;-39
2022/10/15 08:23:46;;;;;;;1.30;0.80;;;;;;;;;;5027109;28;20203;-39
2022/10/15 08:26:13;;;;;;;0.63;0.63;;;;;;;;;;5020840;28;20286;-41
2022/10/15 08:28:43;;;;;;;1.13;1.03;;;;;;;;;;5023042;28;20209;-41
2022/10/15 08:31:10;;;;;;;0.50;0.50;;;;;;;;;;5020469;28;20234;-42
2022/10/15 08:33:39;;;;;;;0.63;0.57;;;;;;;;;;5021780;28;20204;-36
2022/10/15 08:36:06;;;;;;;0.87;0.60;;;;;;;;;;5031514;28;20198;-40
2022/10/15 08:38:35;;;;;;;0.50;0.50;;;;;;;;;;5027857;28;20228;-39
2022/10/15 08:41:03;;;;;;;0.73;0.50;;;;;;;;;;5031949;28;20237;-35
2022/10/15 08:43:35;;;;;;;1.70;0.60;;;;;;;;;;5025027;28;20207;-45
2022/10/15 08:46:05;;;;;;;0.90;0.60;;;;;;;;;;5017777;28;20306;-43
2022/10/15 08:48:34;;;;;;;1.90;0.60;;;;;;;;;;5022387;28;20278;-41
2022/10/15 08:51:03;;;;;;;0.60;0.60;;;;;;;;;;5031176;28;20222;-42
2022/10/15 08:53:34;;;;;;;0.73;0.70;;;;;;;;;;5028125;28;20204;-37
2022/10/15 08:56:04;;;;;;;0.53;0.50;;;;;;;;;;5032026;28;20236;-44
2022/10/15 08:58:36;;;;;;;0.53;0.53;;;;;;;;;;5028300;28;20218;-40
2022/10/15 09:01:05;;;;;;;1.03;0.97;;;;;;;;;;5019260;28;20246;-41
2022/10/15 09:03:36;;;;;;;1.20;0.90;;;;;;;;;;5022403;28;20327;-45
2022/10/15 09:06:08;;;;;;;4.37;1.53;;;;;;;;;;5026905;28;20206;-42
2022/10/15 09:08:48;;;;;;;0.83;0.83;;;;;;;;;;5020329;28;20210;-39
2022/10/15 09:11:19;;;;;;;0.70;0.70;;;;;;;;;;5029177;28;20230;-39
2022/10/15 09:13:47;;;;;;;3.90;0.97;;;;;;;;;;5022452;28;20219;-40
2022/10/15 09:16:16;;;;;;;0.90;0.90;;;;;;;;;;5028489;28;20202;-39
2022/10/15 09:18:45;;;;;;;1.60;0.57;;;;;;;;;;5014730;28;20225;-43
2022/10/15 09:21:13;;;;;;;1.47;1.20;;;;;;;;;;5022933;28;20222;-43
2022/10/15 09:23:42;;;;;;;1.30;1.20;;;;;;;;;;5030783;28;20306;-38
2022/10/15 09:26:15;;;;;;;1.33;1.17;;;;;;;;;;5023831;28;20337;-41
2022/10/15 09:28:47;;;;;;;1.37;0.90;;;;;;;;;;5028962;28;20206;-41
2022/10/15 09:31:15;;;;;;;1.23;0.87;;;;;;;;;;5028252;28;20234;-43
2022/10/15 09:33:45;;;;;;;1.20;0.60;;;;;;;;;;5025186;28;20228;-39
2022/10/15 09:36:18;;;;;;;1.67;0.90;;;;;;;;;;5024869;28;20209;-39
2022/10/15 09:38:50;;;;;;;0.50;0.50;;;;;;;;;;5029300;28;20205;-39
2022/10/15 09:41:25;;;;;;;1.40;0.50;;;;;;;;;;5022029;28;20231;-42
2022/10/15 09:44:01;;;;;;;0.60;0.60;;;;;;;;;;5020284;28;20202;-44
2022/10/15 09:46:28;;;;;;;0.30;0.30;;;;;;;;;;5022573;28;20205;-39
2022/10/15 09:49:02;;;;;;;0.50;0.50;;;;;;;;;;5022765;28;20219;-40
2022/10/15 09:51:34;;;;;;;0.30;0.30;;;;;;;;;;5030365;28;20219;-39
2022/10/15 09:54:04;;;;;;;4.63;0.50;;;;;;;;;;5030585;28;20212;-42
2022/10/15 09:56:35;;;;;;;1.00;0.50;;;;;;;;;;5026649;28;20199;-42
2022/10/15 09:59:04;;;;;;;0.83;0.50;;;;;;;;;;5028686;28;20199;-41
2022/10/15 10:01:32;;;;;;;0.60;0.60;;;;;;;;;;5023526;28;20225;-39
2022/10/15 10:04:11;;;;;;;0.87;0.70;;;;;;;;;;5017856;28;20202;-45
2022/10/15 10:06:43;;;;;;;1.60;0.93;;;;;;;;;;5029468;28;20241;-40
2022/10/15 10:09:16;;;;;;;0.63;0.60;;;;;;;;;;5024607;28;20218;-40
2022/10/15 10:11:47;;;;;;;1.60;0.60;;;;;;;;;;5020602;28;20237;-35
2022/10/15 10:16:58;;;;;;;1.37;0.60;;;;;;;;;;5070617;28;20219;-42
2022/10/15 10:19:28;;;;;;;1.07;0.50;;;;;;;;;;5066430;28;20268;-45
2022/10/15 10:22:06;;;;;;;0.80;0.50;;;;;;;;;;5073258;28;20278;-44
2022/10/15 10:24:34;;;;;;;1.20;0.70;;;;;;;;;;5066245;28;20215;-44
2022/10/15 10:27:03;;;;;;;0.80;0.53;;;;;;;;;;5058922;28;20418;-44
2022/10/15 10:29:33;;;;;;;1.50;0.50;;;;;;;;;;5071175;28;20259;-44
2022/10/15 10:32:00;;;;;;;2.20;0.50;;;;;;;;;;5056645;28;20289;-44
2022/10/15 10:34:30;;;;;;;0.53;0.53;;;;;;;;;;5060603;28;20205;-44
2022/10/15 10:36:57;;;;;;;2.07;0.47;;;;;;;;;;5058804;28;20296;-42
2022/10/15 10:39:27;;;;;;;1.67;0.60;;;;;;;;;;5072301;28;20288;-42
2022/10/15 10:41:55;;;;;;;0.73;0.50;;;;;;;;;;5057001;28;20228;-43
2022/10/15 10:44:24;;;;;;;2.80;0.70;;;;;;;;;;5071913;28;20628;-47
2022/10/15 10:47:02;;;;;;;1.23;0.73;;;;;;;;;;5079361;28;20207;-41
2022/10/15 10:49:35;;;;;;;2.30;0.60;;;;;;;;;;5068018;28;20221;-41
2022/10/15 10:52:02;;;;;;;1.43;0.70;;;;;;;;;;5067523;28;20221;-42
2022/10/15 10:54:29;;;;;;;1.20;0.57;;;;;;;;;;5057927;28;20202;-45
2022/10/15 10:56:57;;;;;;;0.93;0.70;;;;;;;;;;5056011;28;20220;-45
2022/10/15 10:59:27;;;;;;;3.50;0.60;;;;;;;;;;5054467;28;20274;-43
2022/10/15 11:01:56;;;;;;;0.67;0.67;;;;;;;;;;5060933;28;20647;-39
2022/10/15 11:04:25;;;;;;;0.53;0.53;;;;;;;;;;5064121;28;20220;-43
2022/10/15 11:06:59;;;;;;;1.90;0.60;;;;;;;;;;5066060;28;20197;-40
2022/10/15 11:09:37;;;;;;;0.60;0.60;;;;;;;;;;5049398;28;20202;-44
2022/10/15 11:12:24;;;;;;;0.87;0.60;;;;;;;;;;5053235;28;20216;-45
2022/10/15 11:14:55;;;;;;;3.73;0.90;;;;;;;;;;5079720;28;20274;-43
2022/10/15 11:17:27;;;;;;;0.70;0.70;;;;;;;;;;5067833;28;20198;-47
2022/10/15 11:19:56;;;;;;;2.60;0.80;;;;;;;;;;5066986;28;20228;-45
2022/10/15 11:22:38;;;;;;;2.27;0.70;;;;;;;;;;5085252;28;20189;-41
2022/10/15 11:25:09;;;;;;;2.33;0.70;;;;;;;;;;5070816;28;20204;-44
2022/10/15 11:27:45;;;;;;;3.50;0.70;;;;;;;;;;5062323;28;20293;-37
2022/10/15 11:30:20;;;;;;;3.03;0.60;;;;;;;;;;5074516;28;20258;-44
2022/10/15 11:32:51;;;;;;;0.77;0.60;;;;;;;;;;5059992;28;20235;-43
2022/10/15 11:35:26;;;;;;;1.80;0.50;;;;;;;;;;5078541;28;20206;-42
2022/10/15 11:38:01;;;;;;;1.43;0.90;;;;;;;;;;5067648;28;20208;-43
2022/10/15 11:40:33;;;;;;;3.57;0.50;;;;;;;;;;5055781;28;20231;-42
2022/10/15 11:43:02;;;;;;;2.73;0.90;;;;;;;;;;5071037;28;20234;-42
2022/10/15 11:45:39;;;;;;;0.80;0.50;;;;;;;;;;5089536;28;20208;-43
2022/10/15 11:48:09;;;;;;;0.97;0.57;;;;;;;;;;5073351;28;20208;-38
2022/10/15 11:50:41;;;;;;;3.17;0.87;;;;;;;;;;5062308;28;20316;-40
2022/10/15 11:53:22;;;;;;;0.70;0.50;;;;;;;;;;5065575;28;20238;-42
2022/10/15 11:55:53;;;;;;;1.50;0.50;;;;;;;;;;5079614;28;20304;-40
2022/10/15 11:58:22;;;;;;;0.73;0.70;;;;;;;;;;5065776;28;20248;-40
2022/10/15 12:00:50;;;;;;;1.97;0.53;;;;;;;;;;5070709;28;20225;-41
2022/10/15 12:03:20;;;;;;;1.30;0.63;;;;;;;;;;5070445;28;20223;-41
2022/10/15 12:05:49;;;;;;;0.60;0.60;;;;;;;;;;5085827;28;20211;-43
2022/10/15 12:08:18;;;;;;;1.13;0.67;;;;;;;;;;5072293;28;20201;-43
2022/10/15 12:10:56;;;;;;;3.53;0.70;;;;;;;;;;5065959;28;20222;-38
2022/10/15 12:13:26;;;;;;;0.87;0.63;;;;;;;;;;5078904;28;20210;-43
2022/10/15 12:16:00;;;;;;;1.27;0.50;;;;;;;;;;5083773;28;20240;-40
2022/10/15 12:18:33;;;;;;;1.73;0.63;;;;;;;;;;5074102;28;20211;-43
2022/10/15 12:21:00;;;;;;;1.30;0.50;;;;;;;;;;5076019;28;20224;-45
2022/10/15 12:23:40;;;;;;;2.07;0.70;;;;;;;;;;5088667;28;20228;-45
2022/10/15 12:26:26;;;;;;;2.43;0.70;;;;;;;;;;5054322;28;20203;-40
2022/10/15 12:28:54;;;;;;;2.30;0.50;;;;;;;;;;5074630;28;20201;-43
2022/10/15 12:31:22;;;;;;;1.40;0.50;;;;;;;;;;5092473;28;20218;-41
2022/10/15 12:33:51;;;;;;;0.50;0.50;;;;;;;;;;5069230;28;20252;-46
2022/10/15 12:36:26;;;;;;;3.27;0.80;;;;;;;;;;5086856;28;20208;-44
2022/10/15 12:38:57;;;;;;;1.07;0.50;;;;;;;;;;5092938;28;20279;-44
2022/10/15 12:41:35;;;;;;;0.53;0.47;;;;;;;;;;5065394;28;20252;-37
2022/10/15 12:44:06;;;;;;;10.57;0.67;;;;;;;;;;5071808;28;20215;-45
2022/10/15 12:46:37;;;;;;;1.60;0.60;;;;;;;;;;5080237;28;20201;-43
2022/10/15 12:49:30;;;;;;;0.63;0.43;;;;;;;;;;5074719;28;20192;-42
2022/10/15 12:51:59;;;;;;;0.90;0.73;;;;;;;;;;5092433;28;20232;-42
2022/10/15 12:54:33;;;;;;;2.10;0.60;;;;;;;;;;5096080;28;20266;-44
2022/10/15 12:57:03;;;;;;;2.20;0.63;;;;;;;;;;5091491;28;20238;-42
2022/10/15 12:59:31;;;;;;;1.43;0.57;;;;;;;;;;5064754;28;20198;-41
2022/10/15 13:01:58;;;;;;;0.97;0.57;;;;;;;;;;5090443;28;20253;-42
2022/10/15 13:04:37;;;;;;;0.47;0.47;;;;;;;;;;5061425;28;20300;-42
2022/10/15 13:07:05;;;;;;;1.77;0.50;;;;;;;;;;5082240;28;20197;-44
2022/10/15 13:09:34;;;;;;;0.60;0.60;;;;;;;;;;5071347;28;20212;-42
2022/10/15 13:12:01;;;;;;;0.40;0.40;;;;;;;;;;5070626;28;20213;-44
2022/10/15 13:14:32;;;;;;;4.07;0.80;;;;;;;;;;5072612;28;20263;-41
2022/10/15 13:17:02;;;;;;;4.43;0.60;;;;;;;;;;5063523;28;20201;-43
2022/10/15 13:19:30;;;;;;;1.03;0.50;;;;;;;;;;5061539;28;20211;-40
2022/10/15 13:21:58;;;;;;;0.97;0.60;;;;;;;;;;5083683;28;20198;-44
2022/10/15 13:24:28;;;;;;;1.53;0.90;;;;;;;;;;5078650;28;20201;-38
2022/10/15 13:26:55;;;;;;;0.93;0.63;;;;;;;;;;5072412;28;20208;-43
2022/10/15 13:29:23;;;;;;;1.97;0.67;;;;;;;;;;5062450;28;20209;-46
2022/10/15 13:31:51;;;;;;;0.67;0.67;;;;;;;;;;5058561;28;20237;-42
2022/10/15 13:34:24;;;;;;;1.83;1.30;;;;;;;;;;5070752;28;20210;-39
2022/10/15 13:36:51;;;;;;;1.40;1.30;;;;;;;;;;5090357;28;20197;-44
2022/10/15 13:39:24;;;;;;;1.17;1.07;;;;;;;;;;5073671;28;20201;-45
2022/10/15 13:42:07;;;;;;;0.80;0.80;;;;;;;;;;5073890;28;20219;-37
2022/10/15 13:44:34;;;;;;;0.60;0.60;;;;;;;;;;5075593;28;20201;-41
2022/10/15 13:47:01;;;;;;;1.07;0.83;;;;;;;;;;5079286;28;20225;-42
2022/10/15 13:49:29;;;;;;;0.90;0.90;;;;;;;;;;5062847;28;20208;-43
2022/10/15 13:51:56;;;;;;;1.90;1.00;;;;;;;;;;5055057;28;20221;-43
2022/10/15 13:54:25;;;;;;;2.40;1.77;;;;;;;;;;5069867;28;20201;-43
2022/10/15 13:56:56;;;;;;;4.67;1.93;;;;;;;;;;5070051;28;20296;-35
2022/10/15 13:59:24;;;;;;;2.47;1.63;;;;;;;;;;5065554;28;20270;-37
2022/10/15 14:01:53;;;;;;;9.43;3.07;;;;;;;;;;5064524;28;20213;-41
2022/10/15 14:04:22;;;;;;;2.87;1.40;;;;;;;;;;5068519;28;20228;-40
2022/10/15 14:06:55;;;;;;;2.83;1.23;;;;;;;;;;5079602;28;20205;-40
2022/10/15 14:09:25;;;;;;;4.10;1.10;;;;;;;;;;5085112;28;20678;-41
2022/10/15 14:11:54;;;;;;;2.07;1.17;;;;;;;;;;5067832;28;20236;-41
2022/10/15 14:14:29;;;;;;;2.57;1.10;;;;;;;;;;5073835;28;20204;-42
2022/10/15 14:16:56;;;;;;;1.23;0.80;;;;;;;;;;5069706;28;20201;-40
2022/10/15 14:19:25;;;;;;;1.73;0.67;;;;;;;;;;5061267;28;20204;-43
2022/10/15 14:21:53;;;;;;;0.90;0.50;;;;;;;;;;5067831;28;20216;-41
2022/10/15 14:24:21;;;;;;;0.50;0.50;;;;;;;;;;5070385;28;20211;-44
2022/10/15 14:26:48;;;;;;;1.17;0.87;;;;;;;;;;5060385;28;20213;-42
2022/10/15 14:29:22;;;;;;;1.70;0.60;;;;;;;;;;5072574;28;20200;-45
2022/10/15 14:31:50;;;;;;;1.13;0.70;;;;;;;;;;5071756;28;20212;-41
2022/10/15 14:34:31;;;;;;;1.80;0.90;;;;;;;;;;5063481;28;20200;-45
2022/10/15 14:36:58;;;;;;;2.43;0.97;;;;;;;;;;5079464;28;20239;-41
2022/10/15 14:39:27;;;;;;;1.57;0.90;;;;;;;;;;5090642;28;20208;-38
2022/10/15 14:41:58;;;;;;;1.70;0.90;;;;;;;;;;5089071;28;20211;-43
2022/10/15 14:44:27;;;;;;;4.77;1.57;;;;;;;;;;5058701;28;20201;-40
2022/10/15 14:47:00;;;;;;;5.10;1.43;;;;;;;;;;5074822;28;20224;-41
2022/10/15 14:49:29;;;;;;;1.23;1.13;;;;;;;;;;5069991;28;20204;-42
2022/10/15 14:51:58;;;;;;;52.20;24.57;;;;;;;;;;5072013;28;20197;-42
2022/10/15 14:54:29;;;;;;;11.90;5.00;;;;;;;;;;5090546;28;20215;-41
2022/10/15 14:56:57;;;;;;;1.70;1.23;;;;;;;;;;5057421;28;20213;-41
2022/10/15 14:59:26;;;;;;;3.17;1.70;;;;;;;;;;5077468;28;20211;-38